Time;durP1;ratioP1;P1;durP2;ratioP2;P2;SDS_P1;SDS_P2;PMS_P1;PMS_P2;Temp;Humidity;BMP_temperature;BMP_pressure;BME280_temperature;BME280_humidity;BME280_pressure;Samples;Min_cycle;Max_cycle;Signal;HPM_P1;HPM_P2
2023/05/21 00:01:41;;;;;;;6.65;5.05;;;14.30;99.90;;;;;;5074637;28;20332;-38
2023/05/21 00:04:07;;;;;;;7.47;5.63;;;14.30;99.90;;;;;;5074210;28;20056;-41
2023/05/21 00:06:35;;;;;;;7.28;4.70;;;14.30;99.90;;;;;;5074291;28;20482;-39
2023/05/21 00:09:02;;;;;;;6.35;5.00;;;14.20;99.90;;;;;;5069034;28;20079;-40
2023/05/21 00:11:28;;;;;;;9.32;5.20;;;14.30;99.90;;;;;;5068847;28;20066;-39
2023/05/21 00:13:54;;;;;;;7.90;4.90;;;14.20;99.90;;;;;;5074091;28;20588;-41
2023/05/21 00:16:20;;;;;;;6.55;5.25;;;14.20;99.90;;;;;;5074031;28;20433;-37
2023/05/21 00:18:46;;;;;;;5.75;4.70;;;14.20;99.90;;;;;;5072916;28;20048;-36
2023/05/21 00:21:12;;;;;;;8.02;4.85;;;14.20;99.90;;;;;;5074632;28;20052;-39
2023/05/21 00:23:40;;;;;;;6.63;5.32;;;14.20;99.90;;;;;;5074212;28;20126;-40
2023/05/21 00:26:05;;;;;;;6.63;4.47;;;14.20;99.90;;;;;;5074413;28;20636;-42
2023/05/21 00:28:31;;;;;;;9.57;6.32;;;14.20;99.90;;;;;;5073047;28;20047;-37
2023/05/21 00:30:56;;;;;;;7.47;4.88;;;14.20;99.90;;;;;;5073455;28;20066;-41
2023/05/21 00:33:25;;;;;;;5.65;4.75;;;14.20;99.90;;;;;;5073676;28;20055;-35
2023/05/21 00:35:51;;;;;;;6.75;5.00;;;14.20;99.90;;;;;;5068962;28;20053;-38
2023/05/21 00:38:17;;;;;;;5.32;4.45;;;14.20;99.90;;;;;;5072349;28;20051;-43
2023/05/21 00:40:43;;;;;;;8.52;4.85;;;14.20;99.90;;;;;;5074388;28;20075;-41
2023/05/21 00:43:09;;;;;;;5.82;4.65;;;14.20;99.90;;;;;;5064945;28;20059;-41
2023/05/21 00:45:36;;;;;;;6.97;5.07;;;14.20;99.90;;;;;;5070207;28;20040;-40
2023/05/21 00:48:05;;;;;;;9.65;4.97;;;14.20;99.90;;;;;;5074199;28;20063;-42
2023/05/21 00:50:31;;;;;;;8.43;5.22;;;14.20;99.90;;;;;;5070541;28;20078;-39
2023/05/21 00:52:58;;;;;;;6.75;5.57;;;14.20;99.90;;;;;;5073609;28;20117;-37
2023/05/21 00:55:25;;;;;;;8.73;5.13;;;14.20;99.90;;;;;;5073510;28;20514;-39
2023/05/21 00:57:50;;;;;;;8.48;5.45;;;14.20;99.90;;;;;;5056001;28;20101;-41
2023/05/21 01:00:16;;;;;;;6.50;4.93;;;14.10;99.90;;;;;;5070985;28;20052;-36
2023/05/21 01:02:43;;;;;;;6.38;5.03;;;14.20;99.90;;;;;;5074656;28;20051;-39
2023/05/21 01:05:09;;;;;;;6.15;4.85;;;14.10;99.90;;;;;;5073667;28;20122;-35
2023/05/21 01:07:37;;;;;;;8.88;5.30;;;14.10;99.90;;;;;;5073912;28;20427;-41
2023/05/21 01:10:06;;;;;;;7.38;5.10;;;14.10;99.90;;;;;;5062479;28;20106;-38
2023/05/21 01:12:34;;;;;;;7.38;5.28;;;14.00;99.90;;;;;;5072053;28;20658;-38
2023/05/21 01:15:04;;;;;;;12.65;5.32;;;14.00;99.90;;;;;;5073477;28;20052;-40
2023/05/21 01:17:30;;;;;;;6.82;4.97;;;14.00;99.90;;;;;;5071185;28;20085;-40
2023/05/21 01:19:57;;;;;;;7.63;6.07;;;14.00;99.90;;;;;;5072473;28;20052;-42
2023/05/21 01:22:24;;;;;;;7.13;5.60;;;14.00;99.90;;;;;;5073503;28;20051;-36
2023/05/21 01:24:50;;;;;;;8.57;5.20;;;14.00;99.90;;;;;;5076014;28;20052;-39
2023/05/21 01:27:15;;;;;;;8.43;5.90;;;14.00;99.90;;;;;;5077591;28;20083;-37
2023/05/21 01:29:41;;;;;;;8.30;6.00;;;13.90;99.90;;;;;;5077166;28;20547;-41
2023/05/21 01:32:10;;;;;;;7.80;6.13;;;13.90;99.90;;;;;;5075796;28;20048;-41
2023/05/21 01:34:55;;;;;;;9.05;5.82;;;13.90;99.90;;;;;;5077359;28;20583;-41
2023/05/21 01:37:29;;;;;;;8.30;5.20;;;13.90;99.90;;;;;;5071707;28;20075;-41
2023/05/21 01:40:03;;;;;;;6.78;5.13;;;13.90;99.90;;;;;;5076138;28;20083;-38
2023/05/21 01:42:30;;;;;;;6.22;5.63;;;13.90;99.90;;;;;;5071932;28;20551;-44
2023/05/21 01:44:58;;;;;;;8.00;6.00;;;13.90;99.90;;;;;;5068857;28;20484;-39
2023/05/21 01:47:28;;;;;;;8.45;5.88;;;13.90;99.90;;;;;;5076715;28;20044;-35
2023/05/21 01:49:54;;;;;;;6.57;5.22;;;13.90;99.90;;;;;;5075971;28;20044;-38
2023/05/21 01:52:20;;;;;;;8.95;5.57;;;13.90;99.90;;;;;;5077055;28;20059;-38
2023/05/21 01:54:45;;;;;;;7.03;5.88;;;13.90;99.90;;;;;;5076353;28;20575;-40
2023/05/21 01:57:11;;;;;;;9.10;5.53;;;13.90;99.90;;;;;;5076417;28;20052;-41
2023/05/21 01:59:37;;;;;;;5.78;5.18;;;13.80;99.90;;;;;;5075752;28;20044;-45
2023/05/21 02:02:03;;;;;;;9.38;6.38;;;13.80;99.90;;;;;;5070313;28;20067;-39
2023/05/21 02:04:29;;;;;;;10.90;6.13;;;13.80;99.90;;;;;;5074519;28;20276;-40
2023/05/21 02:06:54;;;;;;;7.65;5.90;;;13.80;99.90;;;;;;5073694;28;20059;-42
2023/05/21 02:09:20;;;;;;;8.18;6.65;;;13.80;99.90;;;;;;5068108;28;20080;-40
2023/05/21 02:11:46;;;;;;;8.30;5.75;;;13.80;99.90;;;;;;5073674;28;20167;-38
2023/05/21 02:14:12;;;;;;;7.38;6.32;;;13.80;99.90;;;;;;5076853;28;20106;-40
2023/05/21 02:16:38;;;;;;;7.82;5.93;;;13.80;99.90;;;;;;5076023;28;20159;-38
2023/05/21 02:19:05;;;;;;;8.02;5.97;;;13.80;99.90;;;;;;5075925;28;20044;-40
2023/05/21 02:21:31;;;;;;;10.50;6.50;;;13.80;99.90;;;;;;5076089;28;20156;-36
2023/05/21 02:23:56;;;;;;;6.78;5.97;;;13.70;99.90;;;;;;5076189;28;20175;-41
2023/05/21 02:26:22;;;;;;;11.15;5.95;;;13.70;99.90;;;;;;5075598;28;20048;-40
2023/05/21 02:28:48;;;;;;;9.48;5.65;;;13.70;99.90;;;;;;5075268;28;20433;-38
2023/05/21 02:31:13;;;;;;;9.18;6.38;;;13.70;99.90;;;;;;5076565;28;20048;-38
2023/05/21 02:33:41;;;;;;;7.93;6.47;;;13.70;99.90;;;;;;5075126;28;20048;-40
2023/05/21 02:36:14;;;;;;;8.80;6.25;;;13.60;99.90;;;;;;5071203;28;20080;-41
2023/05/21 02:38:42;;;;;;;8.57;5.82;;;13.60;99.90;;;;;;5075318;28;20044;-38
2023/05/21 02:41:09;;;;;;;7.97;6.88;;;13.60;99.90;;;;;;5076147;28;20083;-40
2023/05/21 02:43:35;;;;;;;9.23;6.32;;;13.60;99.90;;;;;;5063737;28;20044;-42
2023/05/21 02:46:00;;;;;;;7.25;6.43;;;13.60;99.90;;;;;;5076131;28;20048;-36
2023/05/21 02:48:26;;;;;;;7.47;6.20;;;13.60;99.90;;;;;;5075067;28;20549;-36
2023/05/21 02:50:52;;;;;;;9.52;6.97;;;13.60;99.90;;;;;;5076302;28;20056;-41
2023/05/21 02:53:18;;;;;;;8.10;6.90;;;13.50;99.90;;;;;;5075818;28;20047;-40
2023/05/21 02:55:43;;;;;;;8.68;6.57;;;13.50;99.90;;;;;;5075512;28;20044;-42
2023/05/21 02:58:12;;;;;;;8.75;6.45;;;13.50;99.90;;;;;;5075734;28;20415;-39
2023/05/21 03:00:38;;;;;;;7.95;6.75;;;13.40;99.90;;;;;;5075634;28;20113;-39
2023/05/21 03:03:03;;;;;;;11.77;7.57;;;13.40;99.90;;;;;;5076405;28;20474;-37
2023/05/21 03:05:29;;;;;;;9.73;7.03;;;13.30;99.90;;;;;;5073863;28;20577;-38
2023/05/21 03:07:55;;;;;;;10.70;7.43;;;13.30;99.90;;;;;;5074429;28;20048;-39
2023/05/21 03:10:21;;;;;;;11.60;7.55;;;13.30;99.90;;;;;;5065021;28;20052;-40
2023/05/21 03:12:46;;;;;;;10.25;7.35;;;13.30;99.90;;;;;;5075620;28;20044;-36
2023/05/21 03:15:15;;;;;;;9.38;7.80;;;13.30;99.90;;;;;;5076000;28;20591;-36
2023/05/21 03:17:41;;;;;;;10.30;8.90;;;13.30;99.90;;;;;;5074950;28;20097;-37
2023/05/21 03:20:15;;;;;;;9.32;8.00;;;13.30;99.90;;;;;;5074120;28;20052;-41
2023/05/21 03:22:43;;;;;;;10.40;8.70;;;13.30;99.90;;;;;;5075560;28;20055;-40
2023/05/21 03:25:10;;;;;;;10.93;8.70;;;13.30;99.90;;;;;;5057253;28;20136;-36
2023/05/21 03:27:39;;;;;;;10.85;9.20;;;13.30;99.90;;;;;;5075097;28;20044;-38
2023/05/21 03:30:05;;;;;;;13.32;8.55;;;13.30;99.90;;;;;;5074189;28;20052;-38
2023/05/21 03:32:36;;;;;;;10.88;9.30;;;13.40;99.90;;;;;;5075018;28;20413;-39
2023/05/21 03:35:03;;;;;;;12.45;9.07;;;13.30;99.90;;;;;;5073215;28;20093;-39
2023/05/21 03:37:29;;;;;;;12.85;9.68;;;13.30;99.90;;;;;;5068335;28;20084;-41
2023/05/21 03:39:55;;;;;;;13.60;9.98;;;13.40;99.90;;;;;;5073669;28;20127;-37
2023/05/21 03:42:21;;;;;;;13.25;9.90;;;13.40;99.90;;;;;;5071533;28;20529;-39
2023/05/21 03:44:46;;;;;;;15.30;10.07;;;13.40;99.90;;;;;;5062969;28;20058;-40
2023/05/21 03:47:12;;;;;;;12.70;9.85;;;13.40;99.90;;;;;;5073965;28;20367;-37
2023/05/21 03:49:38;;;;;;;14.93;10.43;;;13.40;99.90;;;;;;5073512;28;20355;-41
2023/05/21 03:52:03;;;;;;;12.02;10.23;;;13.30;99.90;;;;;;5075040;28;20048;-39
2023/05/21 03:54:29;;;;;;;14.23;10.15;;;13.40;99.90;;;;;;5075058;28;20056;-42
2023/05/21 03:56:55;;;;;;;12.38;10.40;;;13.40;99.90;;;;;;5074752;28;20051;-38
2023/05/21 03:59:20;;;;;;;12.65;10.20;;;13.40;99.90;;;;;;5073596;28;20545;-36
2023/05/21 04:01:46;;;;;;;13.70;9.93;;;13.40;99.90;;;;;;5068905;28;20052;-35
2023/05/21 04:04:12;;;;;;;15.90;10.30;;;13.40;99.90;;;;;;5074571;28;20532;-41
2023/05/21 04:06:37;;;;;;;13.52;10.70;;;13.40;99.90;;;;;;5068018;28;20055;-40
2023/05/21 04:09:03;;;;;;;14.45;9.90;;;13.40;99.90;;;;;;5057719;28;20044;-40
2023/05/21 04:11:30;;;;;;;17.65;10.35;;;13.40;99.90;;;;;;5068480;28;20469;-38
2023/05/21 04:13:55;;;;;;;13.60;10.18;;;13.40;99.90;;;;;;5074274;28;20047;-36
2023/05/21 04:16:23;;;;;;;15.68;9.70;;;13.40;99.90;;;;;;5073896;28;20056;-35
2023/05/21 04:18:48;;;;;;;14.55;10.25;;;13.40;99.90;;;;;;5073716;28;20044;-46
2023/05/21 04:21:15;;;;;;;12.98;9.68;;;13.50;99.90;;;;;;5072612;28;20059;-41
2023/05/21 04:23:40;;;;;;;13.55;9.05;;;13.50;99.90;;;;;;5072887;28;20044;-37
2023/05/21 04:26:06;;;;;;;13.82;10.00;;;13.50;99.90;;;;;;5073589;28;20044;-37
2023/05/21 04:28:32;;;;;;;13.15;9.25;;;13.50;99.90;;;;;;5072577;28;20063;-38
2023/05/21 04:30:58;;;;;;;12.20;9.73;;;13.50;99.90;;;;;;5072176;28;20523;-38
2023/05/21 04:33:24;;;;;;;13.25;9.55;;;13.50;99.90;;;;;;5072701;28;20048;-43
2023/05/21 04:35:50;;;;;;;12.23;8.88;;;13.50;99.90;;;;;;5069994;28;20055;-41
2023/05/21 04:38:19;;;;;;;15.18;9.82;;;13.50;99.90;;;;;;5072425;28;20043;-38
2023/05/21 04:40:51;;;;;;;11.85;9.80;;;13.50;99.90;;;;;;5074358;28;20048;-41
2023/05/21 04:43:24;;;;;;;11.70;9.07;;;13.50;99.90;;;;;;5063367;28;20123;-39
2023/05/21 04:45:50;;;;;;;14.55;10.13;;;13.50;99.90;;;;;;5072000;28;20090;-38
2023/05/21 04:48:16;;;;;;;11.40;9.75;;;13.50;99.90;;;;;;5073077;28;20582;-40
2023/05/21 04:50:42;;;;;;;15.70;10.95;;;13.50;99.90;;;;;;5074199;28;20525;-39
2023/05/21 04:53:08;;;;;;;14.70;10.38;;;13.50;99.90;;;;;;5073666;28;20127;-36
2023/05/21 04:55:38;;;;;;;10.60;9.35;;;13.50;99.90;;;;;;5072181;28;20551;-39
2023/05/21 04:58:10;;;;;;;15.90;10.07;;;13.50;99.90;;;;;;5072529;28;20109;-38
2023/05/21 05:00:40;;;;;;;15.50;10.27;;;13.50;99.90;;;;;;5073953;28;20504;-40
2023/05/21 05:03:06;;;;;;;12.80;9.77;;;13.60;99.90;;;;;;5073892;28;20531;-39
2023/05/21 05:05:32;;;;;;;14.75;11.27;;;13.60;99.90;;;;;;5072419;28;20048;-41
2023/05/21 05:07:58;;;;;;;15.88;10.82;;;13.60;99.90;;;;;;5070931;28;20532;-36
2023/05/21 05:10:24;;;;;;;15.20;10.23;;;13.60;99.90;;;;;;5065282;28;20048;-38
2023/05/21 05:12:50;;;;;;;14.13;10.27;;;13.60;99.90;;;;;;5071353;28;20071;-40
2023/05/21 05:15:16;;;;;;;13.57;10.57;;;13.70;99.90;;;;;;5071346;28;20052;-41
2023/05/21 05:17:41;;;;;;;14.57;10.57;;;13.70;99.90;;;;;;5071612;28;20052;-40
2023/05/21 05:20:08;;;;;;;12.80;9.27;;;13.70;99.90;;;;;;5073396;28;20056;-41
2023/05/21 05:22:34;;;;;;;15.95;10.30;;;13.70;99.90;;;;;;5073367;28;20168;-39
2023/05/21 05:25:00;;;;;;;13.38;9.98;;;13.70;99.90;;;;;;5073019;28;20135;-41
2023/05/21 05:27:25;;;;;;;12.95;10.18;;;13.80;99.90;;;;;;5072859;28;20474;-39
2023/05/21 05:29:51;;;;;;;12.68;9.27;;;13.70;99.90;;;;;;5072067;28;20040;-37
2023/05/21 05:32:17;;;;;;;12.80;9.68;;;13.80;99.90;;;;;;5073733;28;20392;-40
2023/05/21 05:34:45;;;;;;;11.70;9.13;;;13.80;99.90;;;;;;5074622;28;20040;-39
2023/05/21 05:37:10;;;;;;;10.23;8.65;;;13.90;99.90;;;;;;5069596;28;20147;-40
2023/05/21 05:39:36;;;;;;;11.45;8.40;;;13.90;99.90;;;;;;5072295;28;20058;-40
2023/05/21 05:42:02;;;;;;;13.75;8.95;;;13.90;99.90;;;;;;5073362;28;20086;-39
2023/05/21 05:44:27;;;;;;;13.95;7.95;;;13.90;99.90;;;;;;5060408;28;20059;-38
2023/05/21 05:46:53;;;;;;;11.25;7.93;;;14.00;99.90;;;;;;5073503;28;20044;-36
2023/05/21 05:49:19;;;;;;;14.43;8.00;;;14.00;99.90;;;;;;5072523;28;20047;-40
2023/05/21 05:51:44;;;;;;;10.48;7.35;;;14.00;99.90;;;;;;5073536;28;20155;-39
2023/05/21 05:54:10;;;;;;;11.38;7.68;;;14.10;99.90;;;;;;5073687;28;20083;-37
2023/05/21 05:56:36;;;;;;;9.38;7.55;;;14.10;99.90;;;;;;5072495;28;20051;-42
2023/05/21 05:59:01;;;;;;;13.23;7.82;;;14.20;99.90;;;;;;5071647;28;20568;-38
2023/05/21 06:01:27;;;;;;;9.23;7.18;;;14.20;99.90;;;;;;5072931;28;20051;-39
2023/05/21 06:03:53;;;;;;;13.23;7.75;;;14.20;99.90;;;;;;5073466;28;20115;-37
2023/05/21 06:06:18;;;;;;;14.18;8.13;;;14.30;99.90;;;;;;5071902;28;20044;-39
2023/05/21 06:08:45;;;;;;;13.07;7.25;;;14.40;99.90;;;;;;5069462;28;20742;-40
2023/05/21 06:11:10;;;;;;;11.48;7.72;;;14.50;99.90;;;;;;5068524;28;20465;-38
2023/05/21 06:13:36;;;;;;;10.82;7.00;;;14.60;99.90;;;;;;5076603;28;20043;-40
2023/05/21 06:16:03;;;;;;;11.82;7.40;;;14.70;99.90;;;;;;5076241;28;20044;-44
2023/05/21 06:18:28;;;;;;;10.35;6.70;;;14.90;99.90;;;;;;5075077;28;20063;-39
2023/05/21 06:20:54;;;;;;;12.65;7.72;;;15.00;99.90;;;;;;5076650;28;20059;-38
2023/05/21 06:23:20;;;;;;;12.38;7.20;;;15.30;99.90;;;;;;5076711;28;20605;-41
2023/05/21 06:25:45;;;;;;;12.25;7.38;;;15.70;99.90;;;;;;5076703;28;20044;-42
2023/05/21 06:28:11;;;;;;;10.68;6.65;;;16.20;99.90;;;;;;5075394;28;20048;-39
2023/05/21 06:30:36;;;;;;;10.52;6.65;;;16.50;99.90;;;;;;5075575;28;20044;-43
2023/05/21 06:33:02;;;;;;;8.55;6.97;;;16.80;99.90;;;;;;5075979;28;20555;-38
2023/05/21 06:35:28;;;;;;;9.77;7.00;;;17.00;99.90;;;;;;5075008;28;20519;-40
2023/05/21 06:37:53;;;;;;;11.43;6.38;;;17.00;99.90;;;;;;5071370;28;20073;-42
2023/05/21 06:40:19;;;;;;;12.40;6.55;;;17.00;99.90;;;;;;5076138;28;20052;-40
2023/05/21 06:42:45;;;;;;;11.55;6.80;;;16.80;99.90;;;;;;5069446;28;20049;-40
2023/05/21 06:45:11;;;;;;;11.30;6.05;;;16.70;99.90;;;;;;5069451;28;20496;-40
2023/05/21 06:47:36;;;;;;;8.52;6.05;;;16.70;99.90;;;;;;5075028;28;20058;-42
2023/05/21 06:50:02;;;;;;;9.57;7.20;;;16.80;99.90;;;;;;5075453;28;20548;-41
2023/05/21 06:52:28;;;;;;;9.07;6.70;;;16.70;99.90;;;;;;5075445;28;20058;-40
2023/05/21 06:54:54;;;;;;;8.98;6.65;;;16.80;99.90;;;;;;5075417;28;20055;-40
2023/05/21 06:57:19;;;;;;;10.13;6.53;;;16.90;99.90;;;;;;5074580;28;20798;-40
2023/05/21 06:59:45;;;;;;;11.05;6.93;;;16.90;99.90;;;;;;5073081;28;20063;-44
2023/05/21 07:02:11;;;;;;;9.75;6.55;;;17.00;99.90;;;;;;5075402;28;20047;-39
2023/05/21 07:04:36;;;;;;;9.23;7.03;;;16.90;99.90;;;;;;5074246;28;20514;-40
2023/05/21 07:07:05;;;;;;;12.70;7.43;;;16.90;99.90;;;;;;5075257;28;20597;-39
2023/05/21 07:09:31;;;;;;;12.88;6.53;;;16.80;99.90;;;;;;5066438;28;20048;-40
2023/05/21 07:11:56;;;;;;;10.32;6.30;;;16.70;99.90;;;;;;5075371;28;20551;-36
2023/05/21 07:14:24;;;;;;;10.63;6.95;;;16.70;99.90;;;;;;5075358;28;20133;-38
2023/05/21 07:16:50;;;;;;;9.50;6.88;;;16.60;99.90;;;;;;5063042;28;20538;-40
2023/05/21 07:19:16;;;;;;;12.00;7.40;;;16.50;99.90;;;;;;5074400;28;20043;-41
2023/05/21 07:21:41;;;;;;;8.80;6.85;;;16.40;99.90;;;;;;5075170;28;20055;-37
2023/05/21 07:24:07;;;;;;;9.73;6.95;;;16.40;99.90;;;;;;5075407;28;20503;-45
2023/05/21 07:26:32;;;;;;;17.33;7.55;;;16.40;99.90;;;;;;5074220;28;20098;-37
2023/05/21 07:28:58;;;;;;;10.32;7.85;;;16.40;99.90;;;;;;5073886;28;20086;-37
2023/05/21 07:31:24;;;;;;;9.00;7.38;;;16.50;99.90;;;;;;5074648;28;20047;-36
2023/05/21 07:33:49;;;;;;;11.50;7.25;;;16.80;99.90;;;;;;5074707;28;20561;-39
2023/05/21 07:36:15;;;;;;;13.40;7.60;;;17.00;99.90;;;;;;5069309;28;20538;-40
2023/05/21 07:38:42;;;;;;;11.38;6.80;;;17.10;99.90;;;;;;5074249;28;20047;-42
2023/05/21 07:41:08;;;;;;;14.20;8.27;;;17.30;99.90;;;;;;5074006;28;20047;-41
2023/05/21 07:43:34;;;;;;;9.32;6.85;;;17.40;99.90;;;;;;5063315;28;20049;-42
2023/05/21 07:45:59;;;;;;;9.93;6.60;;;17.60;99.90;;;;;;5066218;28;20031;-43
2023/05/21 07:48:25;;;;;;;7.88;6.88;;;17.80;99.90;;;;;;5068693;28;20044;-42
2023/05/21 07:50:51;;;;;;;10.27;7.50;;;18.20;99.90;;;;;;5062368;28;20044;-40
2023/05/21 07:53:17;;;;;;;8.65;6.32;;;18.50;99.90;;;;;;5070700;28;20071;-42
2023/05/21 07:55:46;;;;;;;8.50;6.88;;;18.80;99.90;;;;;;5061222;28;20491;-37
2023/05/21 07:58:16;;;;;;;11.68;7.55;;;19.00;99.90;;;;;;5066649;28;20411;-39
2023/05/21 08:00:46;;;;;;;8.35;6.57;;;18.90;99.90;;;;;;5070858;28;20114;-39
2023/05/21 08:03:15;;;;;;;8.18;6.75;;;19.00;99.90;;;;;;5068557;28;20052;-39
2023/05/21 08:05:47;;;;;;;10.52;6.25;;;19.10;99.90;;;;;;5073858;28;20079;-41
2023/05/21 08:08:16;;;;;;;10.05;6.60;;;19.20;99.90;;;;;;5071773;28;20162;-42
2023/05/21 08:10:42;;;;;;;10.55;6.60;;;19.40;99.90;;;;;;5065957;28;20555;-40
2023/05/21 08:13:10;;;;;;;8.95;6.70;;;19.40;99.90;;;;;;5074612;28;20044;-38
2023/05/21 08:15:35;;;;;;;11.15;7.38;;;19.60;99.90;;;;;;5073233;28;20044;-40
2023/05/21 08:18:01;;;;;;;7.10;6.15;;;19.50;99.90;;;;;;5071936;28;20459;-44
2023/05/21 08:20:27;;;;;;;12.15;6.50;;;19.80;99.90;;;;;;5074527;28;20065;-44
2023/05/21 08:22:53;;;;;;;9.00;7.05;;;19.80;99.90;;;;;;5073925;28;20079;-41
2023/05/21 08:25:19;;;;;;;9.23;7.38;;;19.50;99.90;;;;;;5074092;28;20123;-42
2023/05/21 08:27:45;;;;;;;10.40;6.63;;;19.20;99.90;;;;;;5072482;28;20048;-42
2023/05/21 08:30:11;;;;;;;9.55;6.63;;;19.40;99.90;;;;;;5073790;28;20154;-40
2023/05/21 08:32:36;;;;;;;7.97;6.38;;;19.60;99.90;;;;;;5068511;28;20591;-43
2023/05/21 08:35:02;;;;;;;12.73;7.35;;;19.80;99.90;;;;;;5063298;28;20121;-40
2023/05/21 08:37:28;;;;;;;7.35;6.43;;;19.60;99.90;;;;;;5057918;28;20040;-47
2023/05/21 08:39:54;;;;;;;8.60;6.82;;;19.80;99.90;;;;;;5072582;28;20090;-37
2023/05/21 08:42:41;;;;;;;14.27;7.72;;;19.40;99.90;;;;;;5069613;28;20052;-38
2023/05/21 08:45:10;;;;;;;10.50;7.47;;;19.10;99.90;;;;;;5066073;28;20135;-43
2023/05/21 08:47:35;;;;;;;9.77;7.25;;;19.30;99.90;;;;;;5070962;28;20052;-39
2023/05/21 08:50:03;;;;;;;8.85;6.07;;;19.70;99.90;;;;;;5064614;28;20044;-48
2023/05/21 08:52:30;;;;;;;8.15;6.60;;;19.90;99.90;;;;;;5058209;28;20072;-40
2023/05/21 08:54:57;;;;;;;10.90;7.13;;;20.20;99.90;;;;;;5072549;28;20883;-39
2023/05/21 08:57:25;;;;;;;8.63;6.40;;;19.90;99.90;;;;;;5065937;28;20599;-41
2023/05/21 08:59:51;;;;;;;10.15;6.82;;;19.50;99.90;;;;;;5064666;28;20053;-37
2023/05/21 09:02:18;;;;;;;9.70;6.93;;;19.50;99.90;;;;;;5067577;28;20051;-41
2023/05/21 09:04:48;;;;;;;8.20;6.95;;;19.70;99.90;;;;;;5073294;28;20437;-43
2023/05/21 09:07:14;;;;;;;9.45;6.65;;;20.20;99.90;;;;;;5068163;28;20401;-44
2023/05/21 09:10:07;;;;;;;9.70;6.85;;;20.30;99.90;;;;;;5060399;28;20060;-38
2023/05/21 09:12:33;;;;;;;7.82;6.03;;;20.50;99.90;;;;;;5056207;28;20226;-42
2023/05/21 09:15:00;;;;;;;10.02;6.78;;;20.60;99.90;;;;;;5071905;28;20089;-37
2023/05/21 09:17:26;;;;;;;9.77;6.07;;;20.30;99.90;;;;;;5072439;28;20527;-40
2023/05/21 09:20:13;;;;;;;8.20;6.10;;;20.20;99.90;;;;;;5073651;28;20162;-45
2023/05/21 09:22:47;;;;;;;9.02;6.18;;;20.20;99.90;;;;;;5072613;28;20431;-41
2023/05/21 09:25:28;;;;;;;12.75;6.30;;;20.30;99.90;;;;;;5073322;28;20571;-41
2023/05/21 09:28:00;;;;;;;7.05;6.05;;;20.30;99.90;;;;;;5072356;28;20055;-42
2023/05/21 09:30:26;;;;;;;10.02;5.93;;;20.10;99.90;;;;;;5073056;28;20079;-39
2023/05/21 09:32:57;;;;;;;15.02;6.05;;;19.90;99.90;;;;;;5073187;28;20409;-40
2023/05/21 09:35:23;;;;;;;7.90;6.03;;;19.60;99.90;;;;;;5071930;28;20059;-40
2023/05/21 09:37:51;;;;;;;8.40;5.93;;;19.60;99.90;;;;;;5066356;28;20049;-42
2023/05/21 09:40:21;;;;;;;16.05;5.80;;;19.90;99.90;;;;;;5093405;28;20060;-38
2023/05/21 09:42:54;;;;;;;10.85;5.78;;;19.90;99.90;;;;;;5098144;28;20340;-38
2023/05/21 09:45:21;;;;;;;9.77;6.38;;;19.70;99.90;;;;;;5069812;28;20127;-43
2023/05/21 09:47:48;;;;;;;10.88;5.80;;;19.70;99.90;;;;;;5076214;28;20036;-41
2023/05/21 09:50:26;;;;;;;11.55;6.05;;;20.00;99.90;;;;;;5076208;28;20694;-44
2023/05/21 09:52:54;;;;;;;8.88;6.03;;;19.80;99.90;;;;;;5072139;28;20123;-38
2023/05/21 09:55:27;;;;;;;14.52;6.47;;;19.90;99.90;;;;;;5073410;28;21517;-42
2023/05/21 09:57:52;;;;;;;13.02;6.18;;;20.00;99.90;;;;;;5075551;28;20054;-42
2023/05/21 10:00:28;;;;;;;12.00;6.38;;;20.20;99.90;;;;;;5076093;28;20059;-44
2023/05/21 10:02:55;;;;;;;8.90;5.65;;;20.50;99.90;;;;;;5076472;28;20525;-38
2023/05/21 10:05:28;;;;;;;12.23;6.38;;;20.30;99.90;;;;;;5076068;28;20177;-40
2023/05/21 10:08:02;;;;;;;8.73;5.55;;;20.20;99.90;;;;;;5074497;28;20063;-40
2023/05/21 10:10:30;;;;;;;6.90;5.43;;;20.50;99.90;;;;;;5067173;28;20051;-41
2023/05/21 10:13:05;;;;;;;8.65;5.57;;;20.40;99.90;;;;;;5076034;28;20043;-45
2023/05/21 10:15:37;;;;;;;9.57;6.40;;;20.10;99.90;;;;;;5075665;28;20051;-39
2023/05/21 10:18:03;;;;;;;7.57;4.80;;;19.70;99.90;;;;;;5074993;28;20063;-42
2023/05/21 10:20:29;;;;;;;13.38;6.13;;;20.00;99.90;;;;;;5075711;28;20586;-39
2023/05/21 10:22:57;;;;;;;9.48;5.88;;;19.80;99.90;;;;;;5076207;28;20499;-46
2023/05/21 10:25:24;;;;;;;11.57;6.30;;;19.80;99.90;;;;;;5076145;28;20044;-40
2023/05/21 10:27:50;;;;;;;10.32;6.28;;;19.80;99.90;;;;;;5074354;28;20091;-41
2023/05/21 10:30:17;;;;;;;11.02;6.47;;;19.80;99.90;;;;;;5073368;28;20134;-43
2023/05/21 10:32:43;;;;;;;6.57;5.35;;;19.70;99.90;;;;;;5075384;28;20088;-39
2023/05/21 10:35:09;;;;;;;10.25;5.45;;;19.50;99.90;;;;;;5075018;28;20052;-42
2023/05/21 10:37:35;;;;;;;9.80;6.72;;;19.70;99.90;;;;;;5069923;28;20051;-47
2023/05/21 10:40:01;;;;;;;9.27;5.72;;;19.50;99.90;;;;;;5074169;28;20147;-42
2023/05/21 10:42:29;;;;;;;8.50;6.45;;;19.60;99.90;;;;;;5071368;28;20051;-37
2023/05/21 10:44:58;;;;;;;13.55;6.13;;;19.60;99.90;;;;;;5065580;28;20054;-45
2023/05/21 10:47:50;;;;;;;8.30;5.93;;;19.60;99.90;;;;;;5073801;28;20136;-41
2023/05/21 10:50:48;;;;;;;7.72;6.15;;;20.10;99.90;;;;;;5030834;28;20056;-44
2023/05/21 10:53:19;;;;;;;13.02;5.68;;;20.30;99.90;;;;;;5032055;28;20061;-40
2023/05/21 10:55:47;;;;;;;11.00;6.20;;;20.60;99.90;;;;;;5030529;28;20248;-47
2023/05/21 10:58:46;;;;;;;10.85;6.05;;;20.80;99.90;;;;;;5029750;28;20607;-41
2023/05/21 11:01:14;;;;;;;11.05;5.60;;;20.90;99.90;;;;;;5006663;28;20067;-42
2023/05/21 11:03:39;;;;;;;9.05;6.65;;;21.00;99.90;;;;;;5011648;28;20045;-45
2023/05/21 11:06:05;;;;;;;9.25;5.85;;;20.80;99.90;;;;;;5023421;28;20051;-42
2023/05/21 11:08:36;;;;;;;10.90;6.60;;;20.80;99.90;;;;;;5029236;28;20106;-38
2023/05/21 11:11:02;;;;;;;7.38;6.35;;;20.50;99.90;;;;;;5000991;28;20157;-41
2023/05/21 11:13:47;;;;;;;6.55;5.95;;;20.30;99.90;;;;;;4997774;28;20055;-42
2023/05/21 11:16:14;;;;;;;8.43;6.05;;;20.30;99.90;;;;;;5026476;28;20242;-41
2023/05/21 11:18:40;;;;;;;10.07;6.10;;;20.00;99.90;;;;;;5029335;28;20041;-42
2023/05/21 11:21:21;;;;;;;9.15;5.50;;;19.90;99.90;;;;;;5014145;28;20768;-44
2023/05/21 11:23:50;;;;;;;8.82;6.15;;;20.20;99.90;;;;;;5030475;28;20110;-40
2023/05/21 11:26:16;;;;;;;10.35;7.05;;;20.20;99.90;;;;;;5032294;28;20622;-45
2023/05/21 11:28:42;;;;;;;10.80;6.25;;;20.10;99.90;;;;;;5073299;28;20052;-44
2023/05/21 11:31:24;;;;;;;8.90;5.80;;;20.20;99.90;;;;;;5073776;28;20047;-41
2023/05/21 11:34:12;;;;;;;11.50;5.83;;;20.10;99.90;;;;;;5074008;28;20058;-44
2023/05/21 11:36:41;;;;;;;8.73;6.10;;;19.90;99.90;;;;;;5068840;28;20136;-39
2023/05/21 11:39:12;;;;;;;16.50;6.45;;;20.00;99.90;;;;;;5072549;28;20113;-40
2023/05/21 11:41:57;;;;;;;9.90;6.43;;;19.90;99.90;;;;;;5073703;28;20094;-46
2023/05/21 11:44:49;;;;;;;14.15;6.40;;;20.00;99.90;;;;;;5059154;28;20241;-39
2023/05/21 11:47:17;;;;;;;11.48;5.80;;;20.30;99.90;;;;;;5067297;28;20509;-46
2023/05/21 11:49:44;;;;;;;10.18;6.30;;;20.20;99.90;;;;;;5096144;27;20052;-38
2023/05/21 11:52:11;;;;;;;9.32;6.07;;;20.20;99.90;;;;;;5068846;28;20067;-39
2023/05/21 11:54:45;;;;;;;11.32;5.38;;;20.40;99.90;;;;;;5086129;28;20080;-43
2023/05/21 11:57:13;;;;;;;8.07;5.07;;;20.20;99.90;;;;;;5071424;28;20102;-41
2023/05/21 11:59:40;;;;;;;12.18;5.65;;;20.30;99.90;;;;;;5072657;28;20047;-38
2023/05/21 12:02:06;;;;;;;13.30;4.97;;;20.20;99.90;;;;;;5073015;28;20048;-43
2023/05/21 12:04:35;;;;;;;14.40;5.55;;;20.30;99.90;;;;;;5072951;28;20048;-36
2023/05/21 12:07:08;;;;;;;7.68;5.65;;;20.40;99.90;;;;;;5071348;28;20415;-40
2023/05/21 12:09:40;;;;;;;;;;;20.20;99.90;;;;;;5065519;28;20266;-39
2023/05/21 12:12:10;;;;;;;10.07;5.47;;;20.10;99.90;;;;;;5072686;28;19966;-40
2023/05/21 12:14:36;;;;;;;10.48;6.07;;;20.30;99.90;;;;;;5072575;28;20036;-43
2023/05/21 12:17:06;;;;;;;11.95;5.40;;;20.30;99.90;;;;;;5072475;28;20096;-37
2023/05/21 12:19:33;;;;;;;9.60;5.97;;;20.30;99.90;;;;;;5071209;28;20059;-38
2023/05/21 12:22:03;;;;;;;9.65;6.38;;;20.50;99.90;;;;;;5072884;28;20040;-40
2023/05/21 12:24:29;;;;;;;8.65;6.45;;;20.50;99.90;;;;;;5072367;28;20059;-45
2023/05/21 12:27:00;;;;;;;8.55;5.95;;;20.60;99.90;;;;;;5072694;28;20052;-43
2023/05/21 12:29:30;;;;;;;10.15;7.25;;;20.50;99.90;;;;;;5072693;28;20052;-45
2023/05/21 12:31:59;;;;;;;12.73;7.90;;;20.50;99.90;;;;;;5071995;28;20185;-43
2023/05/21 12:34:49;;;;;;;11.55;7.80;;;20.50;99.90;;;;;;5073103;28;20519;-40
2023/05/21 12:37:21;;;;;;;8.85;6.05;;;20.30;99.90;;;;;;5049097;28;20055;-43
2023/05/21 12:39:49;;;;;;;10.02;6.68;;;20.30;99.90;;;;;;5071910;28;20050;-41
2023/05/21 12:42:15;;;;;;;17.08;7.75;;;20.30;99.90;;;;;;5069886;28;20136;-43
2023/05/21 12:44:46;;;;;;;9.40;6.53;;;20.50;99.90;;;;;;5062851;28;20048;-41